Time;durP1;ratioP1;P1;durP2;ratioP2;P2;SDS_P1;SDS_P2;PMS_P1;PMS_P2;Temp;Humidity;BMP_temperature;BMP_pressure;BME280_temperature;BME280_humidity;BME280_pressure;Samples;Min_cycle;Max_cycle;Signal;HPM_P1;HPM_P2
2021/08/25 00:00:50;;;;;;;12.27;5.22;;;;;;;16.48;61.57;102561.53;5031648;28;20038;-54
2021/08/25 00:03:18;;;;;;;11.35;5.18;;;;;;;16.49;61.68;102563.16;5031771;28;20037;-57
2021/08/25 00:05:46;;;;;;;9.05;4.50;;;;;;;16.50;61.43;102561.25;5030470;28;20056;-58
2021/08/25 00:08:13;;;;;;;15.15;5.43;;;;;;;16.48;61.41;102556.03;5031464;28;20037;-58
2021/08/25 00:10:41;;;;;;;11.10;4.90;;;;;;;16.45;61.33;102553.81;5031552;28;20049;-59
2021/08/25 00:13:08;;;;;;;9.73;5.07;;;;;;;16.41;61.33;102558.19;5030322;28;20393;-58
2021/08/25 00:15:41;;;;;;;8.90;4.70;;;;;;;16.38;61.77;102558.72;5031558;28;20046;-57
2021/08/25 00:18:10;;;;;;;8.70;4.93;;;;;;;16.34;61.62;102549.31;5031786;28;20053;-57
2021/08/25 00:20:38;;;;;;;9.43;4.85;;;;;;;16.26;62.33;102550.66;5031839;28;20064;-59
2021/08/25 00:23:07;;;;;;;8.07;4.70;;;;;;;16.28;61.90;102548.44;5031237;28;20045;-55
2021/08/25 00:25:35;;;;;;;10.38;4.85;;;;;;;16.27;61.87;102551.47;5031776;28;20484;-57
2021/08/25 00:28:03;;;;;;;9.02;4.82;;;;;;;16.25;62.43;102542.66;5031743;28;20033;-59
2021/08/25 00:31:02;;;;;;;8.77;4.95;;;;;;;16.27;62.33;102543.22;4970420;28;20178;-58
2021/08/25 00:33:30;;;;;;;10.10;4.55;;;;;;;16.26;62.24;102536.03;4954648;28;20054;-59
2021/08/25 00:35:58;;;;;;;9.48;4.93;;;;;;;16.25;62.11;102534.41;4953837;28;20062;-57
2021/08/25 00:38:25;;;;;;;9.27;5.38;;;;;;;16.30;62.21;102542.69;4970255;28;20505;-60
2021/08/25 00:40:53;;;;;;;9.13;5.03;;;;;;;16.34;62.15;102532.81;4970350;28;20049;-59
2021/08/25 00:43:20;;;;;;;10.02;5.03;;;;;;;16.29;62.33;102532.78;4970643;28;20054;-57
2021/08/25 00:45:48;;;;;;;11.05;4.93;;;;;;;16.24;62.70;102536.31;4973933;28;20691;-58
2021/08/25 00:48:18;;;;;;;9.05;5.03;;;;;;;16.14;62.89;102525.25;4992761;28;20053;-58
2021/08/25 00:50:52;;;;;;;9.48;5.30;;;;;;;16.11;62.91;102532.09;5034649;28;20484;-58
2021/08/25 00:53:22;;;;;;;10.35;5.13;;;;;;;16.07;63.45;102524.66;5034341;28;20053;-56
2021/08/25 00:56:07;;;;;;;9.13;5.13;;;;;;;16.03;63.14;102524.34;5034995;28;20050;-59
2021/08/25 00:58:39;;;;;;;11.05;5.40;;;;;;;16.01;63.17;102523.78;5021340;28;20056;-61
2021/08/25 01:01:31;;;;;;;10.13;5.30;;;;;;;16.01;63.50;102525.69;5033414;28;20046;-60
2021/08/25 01:04:14;;;;;;;13.38;5.47;;;;;;;16.00;63.51;102519.38;5012593;28;20052;-59
2021/08/25 01:06:42;;;;;;;9.82;5.30;;;;;;;15.99;63.34;102517.69;5011962;28;20046;-57
2021/08/25 01:09:12;;;;;;;9.75;5.72;;;;;;;15.85;64.07;102524.72;5012230;28;20053;-56
2021/08/25 01:11:44;;;;;;;10.23;5.35;;;;;;;15.80;63.98;102521.94;5012585;28;20514;-58
2021/08/25 01:14:11;;;;;;;9.95;5.47;;;;;;;15.82;64.18;102525.25;5012153;28;20523;-55
2021/08/25 01:16:42;;;;;;;11.95;5.78;;;;;;;15.83;63.75;102519.53;5012412;28;20042;-57
2021/08/25 01:19:17;;;;;;;10.00;5.05;;;;;;;15.85;64.15;102519.22;5011728;28;20132;-55
2021/08/25 01:21:49;;;;;;;10.75;5.22;;;;;;;15.83;64.07;102524.19;5012044;28;20057;-54
2021/08/25 01:24:18;;;;;;;10.25;5.20;;;;;;;15.75;64.34;102515.34;5012108;28;20046;-56
2021/08/25 01:26:50;;;;;;;9.45;5.45;;;;;;;15.69;64.73;102512.75;5012381;28;20515;-59
2021/08/25 01:29:26;;;;;;;11.35;5.57;;;;;;;15.62;64.78;102512.97;5011708;28;20432;-58
2021/08/25 01:31:54;;;;;;;10.80;5.78;;;;;;;15.53;65.18;102509.03;5012268;28;20049;-59
2021/08/25 01:34:22;;;;;;;10.38;5.97;;;;;;;15.47;65.32;102502.66;5011655;28;20049;-58
2021/08/25 01:36:53;;;;;;;11.63;5.93;;;;;;;15.46;65.54;102502.91;5011624;28;20054;-56
2021/08/25 01:39:21;;;;;;;10.73;5.60;;;;;;;15.48;65.56;102495.25;5011870;28;20050;-58
2021/08/25 01:41:51;;;;;;;10.23;5.15;;;;;;;15.49;65.60;102494.16;5021935;28;20062;-58
2021/08/25 01:44:19;;;;;;;12.32;5.63;;;;;;;15.50;65.62;102495.81;5033508;28;20045;-57
2021/08/25 01:46:47;;;;;;;12.70;5.57;;;;;;;15.54;65.23;102488.72;5033856;28;20518;-58
2021/08/25 01:49:15;;;;;;;11.73;5.80;;;;;;;15.50;65.48;102501.31;5033421;28;20076;-54
2021/08/25 01:51:43;;;;;;;9.65;5.38;;;;;;;15.43;65.72;102492.47;5033385;28;20527;-58
2021/08/25 01:54:12;;;;;;;10.35;5.53;;;;;;;15.39;65.56;102491.31;5033801;28;20045;-57
2021/08/25 01:56:41;;;;;;;11.77;5.78;;;;;;;15.32;65.95;102488.75;5033596;28;20041;-57
2021/08/25 01:59:08;;;;;;;9.45;5.45;;;;;;;15.30;66.31;102489.03;5033732;28;20085;-58
2021/08/25 02:01:36;;;;;;;14.57;5.88;;;;;;;15.34;66.21;102489.34;5033522;28;20042;-58
2021/08/25 02:04:04;;;;;;;9.95;5.30;;;;;;;15.36;66.15;102480.84;5033441;28;20041;-61
2021/08/25 02:06:32;;;;;;;10.02;5.32;;;;;;;15.42;65.78;102488.06;5033132;28;20029;-60
2021/08/25 02:08:59;;;;;;;11.30;5.65;;;;;;;15.46;65.39;102483.69;5033295;28;20120;-54
2021/08/25 02:11:27;;;;;;;13.57;5.78;;;;;;;15.36;65.81;102481.66;5033517;28;20041;-59
2021/08/25 02:13:54;;;;;;;9.95;5.82;;;;;;;15.23;66.01;102482.09;5033248;28;20045;-57
2021/08/25 02:16:22;;;;;;;9.52;5.35;;;;;;;15.16;66.26;102490.53;5033467;28;20044;-61
2021/08/25 02:18:50;;;;;;;11.85;5.70;;;;;;;15.10;66.69;102480.56;5032232;28;20550;-58
2021/08/25 02:21:21;;;;;;;8.57;4.78;;;;;;;15.13;66.54;102474.59;5033237;28;20045;-58
2021/08/25 02:23:49;;;;;;;8.68;5.00;;;;;;;15.19;66.29;102484.53;5033015;28;20116;-58
2021/08/25 02:26:17;;;;;;;11.13;5.85;;;;;;;15.28;66.66;102474.72;5033057;28;20048;-56
2021/08/25 02:28:46;;;;;;;12.40;5.97;;;;;;;15.37;66.19;102483.34;5033133;28;20041;-60
2021/08/25 02:31:14;;;;;;;12.32;5.40;;;;;;;15.40;65.79;102479.25;5032884;28;20526;-59
2021/08/25 02:33:43;;;;;;;10.80;5.32;;;;;;;15.33;65.93;102483.03;5032512;28;20041;-59
2021/08/25 02:36:12;;;;;;;9.55;5.38;;;;;;;15.31;65.92;102476.97;5032961;28;20488;-57
2021/08/25 02:38:41;;;;;;;9.68;5.40;;;;;;;15.29;65.75;102468.13;5032933;28;20492;-53
2021/08/25 02:41:11;;;;;;;11.05;6.13;;;;;;;15.24;65.99;102468.09;5032928;28;20424;-58
2021/08/25 02:43:39;;;;;;;8.90;5.35;;;;;;;15.22;65.86;102467.53;5032540;28;20518;-57
2021/08/25 02:46:07;;;;;;;9.88;5.63;;;;;;;15.16;66.25;102465.81;5032219;28;20404;-59
2021/08/25 02:48:35;;;;;;;10.18;5.90;;;;;;;15.09;66.66;102468.78;5031896;28;20061;-57
2021/08/25 02:51:03;;;;;;;10.50;5.80;;;;;;;15.08;66.41;102453.41;5032797;28;20099;-58
2021/08/25 02:53:31;;;;;;;10.30;5.97;;;;;;;15.11;66.52;102454.78;5032296;28;20488;-58
2021/08/25 02:55:58;;;;;;;9.85;5.90;;;;;;;15.07;66.48;102450.91;5032928;28;20107;-58
2021/08/25 02:58:27;;;;;;;10.13;6.22;;;;;;;15.06;66.64;102449.25;5032631;28;20049;-57
2021/08/25 03:00:54;;;;;;;15.05;6.07;;;;;;;15.04;66.38;102440.44;5032403;28;20045;-61
2021/08/25 03:03:22;;;;;;;10.10;6.07;;;;;;;14.97;66.73;102442.56;5032141;28;20507;-60
2021/08/25 03:05:51;;;;;;;11.75;5.97;;;;;;;14.94;67.08;102443.09;5032194;28;20492;-58
2021/08/25 03:08:18;;;;;;;10.32;5.93;;;;;;;14.87;67.16;102441.34;5032020;28;20500;-59
2021/08/25 03:10:46;;;;;;;9.80;5.88;;;;;;;14.75;67.61;102443.41;5032330;28;20120;-57
2021/08/25 03:13:14;;;;;;;12.93;5.78;;;;;;;14.62;68.06;102443.78;5032185;28;20065;-55
2021/08/25 03:15:41;;;;;;;11.27;5.72;;;;;;;14.59;68.32;102436.91;5031935;28;20384;-57
2021/08/25 03:18:09;;;;;;;11.15;5.60;;;;;;;14.63;68.42;102437.22;5030777;28;20140;-60
2021/08/25 03:20:37;;;;;;;11.35;6.43;;;;;;;14.66;67.85;102439.47;5018206;28;20416;-60
2021/08/25 03:23:04;;;;;;;13.13;6.05;;;;;;;14.62;68.05;102441.03;5032481;28;20183;-61
2021/08/25 03:25:32;;;;;;;12.27;6.10;;;;;;;14.59;68.22;102449.78;5032104;28;20431;-61
2021/08/25 03:27:59;;;;;;;13.98;6.68;;;;;;;14.49;68.52;102440.31;5032298;28;20488;-61
2021/08/25 03:30:27;;;;;;;10.43;5.65;;;;;;;14.54;68.46;102438.75;5031614;28;20051;-58
2021/08/25 03:32:55;;;;;;;10.27;5.75;;;;;;;14.63;68.21;102437.22;5031860;28;20415;-60
2021/08/25 03:35:22;;;;;;;12.38;5.72;;;;;;;14.62;68.04;102433.66;5031969;28;20396;-60
2021/08/25 03:37:50;;;;;;;11.40;6.03;;;;;;;14.65;68.28;102426.84;5032248;28;20496;-60
2021/08/25 03:40:17;;;;;;;9.95;5.63;;;;;;;14.76;67.75;102428.59;5032184;28;20037;-60
2021/08/25 03:42:45;;;;;;;10.90;5.68;;;;;;;14.81;67.79;102422.34;5031895;28;20534;-60
2021/08/25 03:45:13;;;;;;;9.95;6.13;;;;;;;14.88;67.01;102417.47;5030375;28;20045;-61
2021/08/25 03:47:51;;;;;;;12.25;6.35;;;;;;;14.85;67.09;102416.09;5031628;28;20047;-58
2021/08/25 03:50:18;;;;;;;11.32;5.93;;;;;;;14.79;67.34;102419.03;5031640;28;20571;-60
2021/08/25 03:52:46;;;;;;;11.20;5.80;;;;;;;14.76;67.47;102406.66;5032017;28;20503;-61
2021/08/25 03:55:14;;;;;;;12.68;6.30;;;;;;;14.59;67.61;102408.66;5031959;28;20120;-61
2021/08/25 03:57:41;;;;;;;12.48;5.75;;;;;;;14.55;68.34;102405.59;5031999;28;20511;-62
2021/08/25 04:00:10;;;;;;;10.10;5.72;;;;;;;14.61;68.12;102407.31;5031507;28;20120;-59
2021/08/25 04:02:41;;;;;;;10.88;6.13;;;;;;;14.64;67.97;102400.47;5031373;28;20059;-58
2021/08/25 04:05:09;;;;;;;11.90;6.00;;;;;;;14.63;67.93;102407.06;5032004;28;20095;-56
2021/08/25 04:07:37;;;;;;;12.00;5.78;;;;;;;14.54;68.36;102408.59;5032007;28;20040;-56
2021/08/25 04:10:05;;;;;;;10.82;6.10;;;;;;;14.46;68.52;102401.63;5031592;28;20195;-57
2021/08/25 04:12:33;;;;;;;10.70;6.15;;;;;;;14.39;68.64;102406.47;5031600;28;20037;-59
2021/08/25 04:15:00;;;;;;;11.20;6.05;;;;;;;14.36;69.06;102402.31;5031233;28;20041;-55
2021/08/25 04:17:28;;;;;;;15.57;6.72;;;;;;;14.43;68.84;102402.97;5030587;28;20041;-60
2021/08/25 04:19:55;;;;;;;12.02;6.20;;;;;;;14.51;68.36;102400.84;5034076;28;20136;-59
2021/08/25 04:22:24;;;;;;;10.55;6.07;;;;;;;14.53;68.24;102395.91;5035738;28;20048;-60
2021/08/25 04:24:51;;;;;;;11.55;6.07;;;;;;;14.52;68.31;102394.28;5035407;28;20046;-59
2021/08/25 04:27:19;;;;;;;11.10;5.85;;;;;;;14.53;68.28;102395.91;5035364;28;20029;-60
2021/08/25 04:29:46;;;;;;;12.02;6.20;;;;;;;14.54;68.22;102403.09;5034778;28;20510;-59
2021/08/25 04:32:14;;;;;;;14.23;6.28;;;;;;;14.51;68.17;102404.41;5035050;28;20040;-60
2021/08/25 04:34:42;;;;;;;11.82;5.93;;;;;;;14.40;68.49;102403.44;5035256;28;20048;-59
2021/08/25 04:37:09;;;;;;;14.35;6.30;;;;;;;14.28;69.07;102398.09;5034944;28;20037;-59
2021/08/25 04:39:37;;;;;;;11.35;6.25;;;;;;;14.30;69.02;102400.56;5035068;28;20052;-59
2021/08/25 04:42:05;;;;;;;11.50;5.88;;;;;;;14.29;69.19;102398.94;5034824;28;20535;-54
2021/08/25 04:44:32;;;;;;;12.13;6.70;;;;;;;14.35;68.95;102408.88;5034249;28;20056;-59
2021/08/25 04:47:00;;;;;;;12.23;6.70;;;;;;;14.38;68.78;102400.16;5034708;28;20065;-56
2021/08/25 04:49:28;;;;;;;11.52;5.95;;;;;;;14.42;68.71;102398.53;5034515;28;20107;-59
2021/08/25 04:51:55;;;;;;;12.32;6.75;;;;;;;14.46;68.42;102396.94;5034757;28;20047;-59
2021/08/25 04:54:23;;;;;;;13.48;5.97;;;;;;;14.39;68.41;102395.50;5034584;28;20044;-59
2021/08/25 04:56:50;;;;;;;11.48;6.40;;;;;;;14.27;68.88;102395.63;5034580;28;20049;-59
2021/08/25 04:59:18;;;;;;;12.60;6.35;;;;;;;14.28;69.32;102397.25;5034189;28;20049;-60
2021/08/25 05:01:46;;;;;;;11.23;6.22;;;;;;;14.33;69.02;102386.34;5034856;28;20656;-58
2021/08/25 05:04:13;;;;;;;10.52;6.38;;;;;;;14.37;68.81;102387.50;5033610;28;20050;-59
2021/08/25 05:06:41;;;;;;;13.52;6.72;;;;;;;14.35;68.87;102384.19;5034352;28;20455;-60
2021/08/25 05:09:09;;;;;;;11.52;6.28;;;;;;;14.32;69.19;102398.41;5034357;28;20046;-56
2021/08/25 05:11:36;;;;;;;11.73;6.47;;;;;;;14.27;69.40;102387.38;5030485;28;20052;-55
2021/08/25 05:14:04;;;;;;;11.95;7.22;;;;;;;14.34;69.42;102388.03;5014647;28;20045;-58
2021/08/25 05:16:32;;;;;;;10.70;6.80;;;;;;;14.41;69.05;102388.66;5031309;28;20079;-57
2021/08/25 05:18:59;;;;;;;13.57;7.10;;;;;;;14.47;69.01;102384.88;5034062;28;20128;-57
2021/08/25 05:21:27;;;;;;;13.85;7.38;;;;;;;14.52;69.03;102383.28;5034121;28;20128;-55
2021/08/25 05:23:54;;;;;;;11.98;6.90;;;;;;;14.46;68.81;102385.97;5034481;28;20045;-55
2021/08/25 05:26:22;;;;;;;11.93;6.57;;;;;;;14.29;69.60;102379.75;5034075;28;20042;-52
2021/08/25 05:28:50;;;;;;;11.07;6.30;;;;;;;14.31;69.74;102380.31;4330596;28;9999940;-56
2021/08/25 05:31:17;;;;;;;12.35;6.30;;;;;;;14.39;69.53;102390.81;5031810;28;20034;-57
2021/08/25 05:33:45;;;;;;;14.98;7.07;;;;;;;14.46;69.46;102388.72;5033040;28;20041;-54
2021/08/25 05:36:13;;;;;;;12.43;7.50;;;;;;;14.51;69.19;102389.88;5031751;28;20037;-57
2021/08/25 05:38:40;;;;;;;14.27;6.97;;;;;;;14.46;69.19;102396.13;5030260;28;20048;-57
2021/08/25 05:41:08;;;;;;;13.45;6.47;;;;;;;14.39;69.51;102396.31;5031211;28;20045;-57
2021/08/25 05:43:36;;;;;;;12.40;6.68;;;;;;;14.37;69.71;102395.72;5031090;28;20503;-58
2021/08/25 05:46:03;;;;;;;10.20;6.10;;;;;;;14.30;69.46;102392.34;5031609;28;20056;-55
2021/08/25 05:48:31;;;;;;;12.20;6.75;;;;;;;14.34;69.94;102392.69;5031302;28;20445;-56
2021/08/25 05:50:59;;;;;;;11.25;6.28;;;;;;;14.43;69.79;102391.97;5031712;28;20459;-55
2021/08/25 05:53:27;;;;;;;11.50;6.65;;;;;;;14.54;69.52;102394.88;5031418;28;20507;-53
2021/08/25 05:55:54;;;;;;;11.05;6.30;;;;;;;14.63;69.21;102391.41;5031109;28;20049;-55
2021/08/25 05:58:22;;;;;;;11.13;6.47;;;;;;;14.67;68.95;102381.59;5031248;28;20041;-57
2021/08/25 06:00:49;;;;;;;10.98;6.10;;;;;;;14.73;69.16;102387.13;5031402;28;20045;-56
2021/08/25 06:03:17;;;;;;;12.35;6.30;;;;;;;14.77;68.38;102380.03;5030878;28;20112;-58
2021/08/25 06:05:45;;;;;;;11.25;6.50;;;;;;;14.73;68.32;102371.50;5031487;28;20041;-54
2021/08/25 06:08:13;;;;;;;12.93;7.72;;;;;;;14.70;68.67;102374.75;5031303;28;20183;-55
2021/08/25 06:10:40;;;;;;;12.65;7.00;;;;;;;14.68;69.07;102371.44;5031137;28;20137;-57
2021/08/25 06:13:08;;;;;;;13.07;6.53;;;;;;;14.65;68.60;102372.78;5030945;28;20117;-54
2021/08/25 06:15:35;;;;;;;13.43;7.20;;;;;;;14.64;69.50;102370.28;5027466;28;20053;-57
2021/08/25 06:18:04;;;;;;;12.40;7.00;;;;;;;14.65;69.70;102371.97;5030887;28;20049;-56
2021/08/25 06:20:31;;;;;;;13.25;7.00;;;;;;;14.64;69.40;102375.78;5029836;28;20140;-55
2021/08/25 06:22:59;;;;;;;15.20;6.65;;;;;;;14.65;69.23;102380.19;5030753;28;20480;-54
2021/08/25 06:25:27;;;;;;;11.18;6.53;;;;;;;14.69;69.18;102384.06;5027533;28;20117;-54
2021/08/25 06:27:55;;;;;;;12.80;6.47;;;;;;;14.77;68.91;102385.50;5014606;28;20033;-53
2021/08/25 06:30:22;;;;;;;11.38;6.47;;;;;;;14.80;68.83;102391.34;5015834;28;20045;-55
2021/08/25 06:32:50;;;;;;;11.55;6.13;;;;;;;14.86;68.96;102393.06;5031371;28;20564;-58
2021/08/25 06:35:18;;;;;;;10.98;6.07;;;;;;;14.95;68.73;102387.09;5018899;28;20033;-58
2021/08/25 06:37:46;;;;;;;11.82;6.35;;;;;;;15.01;68.19;102394.28;5032795;28;20077;-58
2021/08/25 06:40:14;;;;;;;12.30;5.95;;;;;;;15.07;68.43;102396.81;5031890;28;20056;-55
2021/08/25 06:42:42;;;;;;;15.82;7.40;;;;;;;15.09;67.30;102393.81;5032182;28;20116;-56
2021/08/25 06:45:11;;;;;;;13.38;6.75;;;;;;;15.09;67.91;102400.13;5032107;28;20128;-55
2021/08/25 06:47:38;;;;;;;14.45;7.55;;;;;;;15.15;67.79;102400.19;5032393;28;20068;-57
2021/08/25 06:50:06;;;;;;;14.93;7.20;;;;;;;15.21;67.52;102396.41;5032248;28;20129;-56
2021/08/25 06:52:34;;;;;;;14.90;7.45;;;;;;;15.21;67.82;102402.72;5032464;28;20053;-55
2021/08/25 06:55:02;;;;;;;12.73;6.72;;;;;;;15.25;67.52;102406.63;5031636;28;20041;-56
2021/08/25 06:57:29;;;;;;;11.32;6.03;;;;;;;15.29;67.39;102404.97;5032498;28;20045;-52
2021/08/25 06:59:57;;;;;;;12.77;6.80;;;;;;;15.37;66.76;102405.59;5032293;28;20052;-52
2021/08/25 07:02:24;;;;;;;14.30;6.65;;;;;;;15.41;67.04;102404.81;5032776;28;20124;-57
2021/08/25 07:04:52;;;;;;;13.43;6.78;;;;;;;15.44;66.99;102406.19;5031847;28;20037;-52
2021/08/25 07:07:20;;;;;;;13.88;6.80;;;;;;;15.46;66.08;102404.03;5032306;28;20047;-52
2021/08/25 07:09:47;;;;;;;13.73;6.72;;;;;;;15.48;66.10;102401.84;5031660;28;20037;-51
2021/08/25 07:12:15;;;;;;;13.38;6.45;;;;;;;15.50;66.51;102399.69;5032226;28;20041;-49
2021/08/25 07:14:43;;;;;;;16.35;7.13;;;;;;;15.53;66.49;102399.13;5030905;28;20041;-53
2021/08/25 07:17:10;;;;;;;14.98;7.55;;;;;;;15.56;66.42;102401.34;5032079;28;20140;-53
2021/08/25 07:19:41;;;;;;;18.27;8.25;;;;;;;15.60;66.21;102398.94;5031094;28;20069;-51
2021/08/25 07:22:09;;;;;;;16.17;7.88;;;;;;;15.64;66.53;102400.06;5032010;28;20065;-53
2021/08/25 07:24:37;;;;;;;17.95;8.10;;;;;;;15.68;65.88;102406.66;5031229;28;20377;-53
2021/08/25 07:27:05;;;;;;;12.20;6.68;;;;;;;15.70;65.61;102410.00;5031722;28;20037;-53
2021/08/25 07:29:32;;;;;;;14.27;7.18;;;;;;;15.71;65.04;102404.25;5031552;28;20037;-52
2021/08/25 07:32:00;;;;;;;12.93;6.78;;;;;;;15.76;64.42;102396.06;5031510;28;20403;-55
2021/08/25 07:34:28;;;;;;;11.73;5.88;;;;;;;15.81;64.60;102399.94;5031784;28;20037;-56
2021/08/25 07:36:56;;;;;;;11.38;6.30;;;;;;;15.84;64.88;102391.16;5030973;28;20041;-51
2021/08/25 07:39:24;;;;;;;11.55;6.20;;;;;;;15.88;64.64;102384.03;5031820;28;20041;-49
2021/08/25 07:41:52;;;;;;;12.13;6.22;;;;;;;15.92;64.37;102391.50;5031165;28;20034;-52
2021/08/25 07:44:20;;;;;;;11.15;5.93;;;;;;;15.98;63.88;102389.59;5030369;28;20109;-53
2021/08/25 07:46:49;;;;;;;12.20;6.50;;;;;;;16.02;63.90;102379.72;5030740;28;20037;-51
2021/08/25 07:49:16;;;;;;;16.00;6.75;;;;;;;16.08;64.22;102389.63;5031242;28;20073;-53
2021/08/25 07:51:44;;;;;;;12.13;5.65;;;;;;;16.13;63.52;102378.66;5031319;28;20129;-51
2021/08/25 07:54:12;;;;;;;10.93;5.72;;;;;;;16.16;63.39;102380.91;5034325;28;20057;-50
2021/08/25 07:56:39;;;;;;;12.65;6.13;;;;;;;16.23;63.30;102382.56;5035668;28;20037;-57
2021/08/25 07:59:11;;;;;;;9.90;5.47;;;;;;;16.25;62.68;102377.63;5035138;28;20492;-56
2021/08/25 08:01:38;;;;;;;9.90;5.43;;;;;;;16.25;63.36;102372.94;5035874;28;20400;-55
2021/08/25 08:04:06;;;;;;;11.40;6.03;;;;;;;16.29;63.47;102374.06;5035071;28;20049;-52
2021/08/25 08:06:34;;;;;;;11.45;6.10;;;;;;;16.36;62.54;102376.59;5035261;28;20088;-53
2021/08/25 08:09:02;;;;;;;10.18;5.45;;;;;;;16.39;62.27;102365.84;5035039;28;20488;-55
2021/08/25 08:11:31;;;;;;;12.23;5.57;;;;;;;16.43;62.09;102368.91;5035629;28;20068;-55
2021/08/25 08:14:00;;;;;;;11.40;5.38;;;;;;;16.48;62.19;102366.16;5035265;28;20056;-51
2021/08/25 08:16:32;;;;;;;13.23;6.03;;;;;;;16.50;62.39;102361.22;5034221;28;20560;-51
2021/08/25 08:19:04;;;;;;;13.95;6.43;;;;;;;16.56;62.19;102359.31;5034799;28;20062;-55
2021/08/25 08:21:32;;;;;;;12.73;5.68;;;;;;;16.58;61.54;102360.69;5034360;28;20042;-53
2021/08/25 08:23:59;;;;;;;11.75;5.70;;;;;;;16.63;61.38;102350.81;5035320;28;20072;-52
2021/08/25 08:26:29;;;;;;;10.48;5.63;;;;;;;16.63;61.75;102357.13;5034349;28;20053;-50
2021/08/25 08:28:58;;;;;;;10.55;5.95;;;;;;;16.61;61.33;102364.81;5035259;28;20033;-51
2021/08/25 08:31:29;;;;;;;16.17;6.55;;;;;;;16.66;60.66;102366.75;5034505;28;20550;-53
2021/08/25 08:33:57;;;;;;;12.68;6.22;;;;;;;16.76;60.15;102350.28;5035062;28;20045;-52
2021/08/25 08:36:25;;;;;;;10.05;5.72;;;;;;;16.85;58.51;102358.84;5034099;28;20444;-54
2021/08/25 08:38:53;;;;;;;9.45;5.20;;;;;;;16.88;58.99;102348.13;5034685;28;20069;-55
2021/08/25 08:41:20;;;;;;;9.15;4.80;;;;;;;16.95;58.34;102351.44;5034634;28;20045;-56
2021/08/25 08:43:50;;;;;;;10.35;6.13;;;;;;;16.99;59.00;102348.97;5034434;28;20048;-54
2021/08/25 08:46:20;;;;;;;11.55;5.10;;;;;;;16.98;58.72;102348.16;5032692;28;20046;-51
2021/08/25 08:48:48;;;;;;;12.07;6.20;;;;;;;16.99;59.76;102344.28;5033847;28;20045;-53
2021/08/25 08:51:22;;;;;;;9.25;5.68;;;;;;;16.99;59.28;102341.53;5034191;28;20415;-52
2021/08/25 08:53:50;;;;;;;11.23;5.85;;;;;;;17.10;59.46;102349.78;5034222;28;20042;-51
2021/08/25 08:56:18;;;;;;;11.07;5.72;;;;;;;17.16;57.96;102351.47;5034368;28;20215;-50
2021/08/25 08:58:46;;;;;;;12.85;6.32;;;;;;;17.18;57.88;102349.25;5034202;28;20491;-51
2021/08/25 09:01:13;;;;;;;10.43;5.72;;;;;;;17.24;56.86;102351.75;5034216;28;20049;-52
2021/08/25 09:03:42;;;;;;;10.88;5.70;;;;;;;17.27;57.53;102344.00;5033884;28;20046;-52
2021/08/25 09:06:09;;;;;;;12.80;5.72;;;;;;;17.31;57.58;102348.69;5032894;28;20037;-51
2021/08/25 09:08:39;;;;;;;10.82;5.38;;;;;;;17.34;57.21;102350.91;5016884;28;20052;-53
2021/08/25 09:11:13;;;;;;;11.23;5.80;;;;;;;17.34;56.85;102350.91;5033835;28;20076;-48
2021/08/25 09:13:50;;;;;;;12.85;5.88;;;;;;;17.38;56.61;102345.66;5034279;28;20052;-48
2021/08/25 09:16:30;;;;;;;10.52;5.72;;;;;;;17.40;55.37;102348.97;5032966;28;20045;-50
2021/08/25 09:19:10;;;;;;;11.77;6.25;;;;;;;17.41;56.01;102334.06;5033779;28;20148;-52
2021/08/25 09:21:45;;;;;;;10.57;5.72;;;;;;;17.41;56.02;102343.19;5033304;28;20060;-52
2021/08/25 09:24:14;;;;;;;10.98;5.63;;;;;;;17.57;55.37;102343.97;5034036;28;20073;-50
2021/08/25 09:27:04;;;;;;;8.75;4.82;;;;;;;17.57;55.36;102338.47;5033260;28;20076;-56
2021/08/25 09:29:31;;;;;;;10.90;5.55;;;;;;;17.57;55.08;102340.41;5033632;28;20037;-52
2021/08/25 09:31:59;;;;;;;11.27;6.07;;;;;;;17.64;54.08;102329.91;5033586;28;20053;-51
2021/08/25 09:34:32;;;;;;;11.82;5.20;;;;;;;17.76;52.76;102326.88;5032358;28;20037;-50
2021/08/25 09:37:09;;;;;;;12.27;5.35;;;;;;;17.76;52.36;102329.63;5033721;28;20038;-53
2021/08/25 09:39:45;;;;;;;10.90;4.97;;;;;;;17.82;50.59;102328.50;5033432;28;20059;-52
2021/08/25 09:42:16;;;;;;;9.93;5.35;;;;;;;17.85;51.06;102326.03;5033529;28;20040;-50
2021/08/25 09:44:45;;;;;;;10.30;4.95;;;;;;;17.95;51.17;102311.38;5032618;28;20052;-50
2021/08/25 09:47:13;;;;;;;8.90;5.05;;;;;;;18.03;51.55;102312.72;5033466;28;20045;-52
2021/08/25 09:49:40;;;;;;;10.90;5.70;;;;;;;18.07;51.23;102300.84;5031215;28;20044;-51
2021/08/25 09:52:08;;;;;;;9.10;5.15;;;;;;;18.13;51.71;102306.34;5033208;28;20427;-52
2021/08/25 09:54:35;;;;;;;9.63;5.32;;;;;;;18.20;50.37;102313.19;5031650;28;20519;-59
2021/08/25 09:57:04;;;;;;;9.50;4.95;;;;;;;18.16;50.89;102301.09;5035517;28;20053;-60
2021/08/25 09:59:31;;;;;;;11.38;5.03;;;;;;;18.13;51.61;102300.81;5034514;28;20099;-58
2021/08/25 10:02:02;;;;;;;9.38;4.85;;;;;;;18.09;51.69;102297.81;5032371;28;20050;-61
2021/08/25 10:04:34;;;;;;;15.18;5.72;;;;;;;18.07;50.28;102291.75;5032643;28;20045;-58
2021/08/25 10:07:02;;;;;;;11.70;5.63;;;;;;;18.10;50.84;102296.69;5032903;28;20420;-60
2021/08/25 10:09:30;;;;;;;9.27;4.80;;;;;;;18.16;50.43;102292.81;5033081;28;20096;-60
2021/08/25 10:12:00;;;;;;;21.05;9.68;;;;;;;18.28;49.86;102301.59;5031472;28;20061;-58
2021/08/25 10:14:30;;;;;;;10.75;5.78;;;;;;;18.31;48.72;102298.25;5025310;28;20064;-58
2021/08/25 10:16:58;;;;;;;10.00;4.97;;;;;;;18.38;48.12;102292.44;5017990;28;20049;-57
2021/08/25 10:19:34;;;;;;;9.93;5.20;;;;;;;18.31;49.50;102287.22;5031055;28;20037;-56
2021/08/25 10:22:24;;;;;;;10.63;5.95;;;;;;;18.38;49.79;102286.91;5024086;28;20033;-56
2021/08/25 10:25:02;;;;;;;13.88;6.28;;;;;;;18.43;49.75;102272.25;5030882;28;20403;-59
2021/08/25 10:27:32;;;;;;;33.67;15.20;;;;;;;18.43;50.06;102266.72;5012509;28;20038;-57
2021/08/25 10:30:10;;;;;;;13.98;6.95;;;;;;;18.48;49.41;102266.69;5014561;28;20401;-60
2021/08/25 10:32:50;;;;;;;12.13;5.28;;;;;;;18.52;49.53;102267.78;5032584;28;20045;-57
2021/08/25 10:35:19;;;;;;;14.18;6.22;;;;;;;18.52;50.26;102270.53;5031859;28;20057;-59
2021/08/25 10:37:47;;;;;;;11.23;5.95;;;;;;;18.55;50.19;102264.44;5032832;28;20669;-59
2021/08/25 10:40:18;;;;;;;14.05;5.68;;;;;;;18.56;50.07;102268.84;5032130;28;20072;-59
2021/08/25 10:42:58;;;;;;;9.52;5.10;;;;;;;18.59;49.67;102270.19;5033029;28;20057;-58
2021/08/25 10:45:44;;;;;;;13.10;5.43;;;;;;;18.67;48.21;102261.31;5030917;28;20049;-59
2021/08/25 10:48:12;;;;;;;;;;;;;;;18.69;48.14;102254.41;5032574;28;20049;-58
2021/08/25 10:51:21;;;;;;;37.88;16.98;;;;;;;18.74;52.73;102265.41;5026118;28;19971;-57
2021/08/25 10:53:49;;;;;;;9.43;5.30;;;;;;;18.82;48.26;102272.28;5032606;28;20152;-59
2021/08/25 10:56:28;;;;;;;11.63;5.70;;;;;;;18.80;49.49;102270.91;5031683;28;20041;-59
2021/08/25 10:59:04;;;;;;;11.98;5.50;;;;;;;18.82;49.81;102269.50;5032392;28;20496;-57
2021/08/25 11:01:35;;;;;;;11.40;5.50;;;;;;;18.86;48.62;102259.53;5031179;28;20049;-59
2021/08/25 11:04:18;;;;;;;10.75;5.57;;;;;;;18.84;49.13;102260.94;5032438;28;20400;-57
2021/08/25 11:06:58;;;;;;;9.27;5.13;;;;;;;18.80;49.50;102246.06;5031914;28;20041;-58
2021/08/25 11:09:30;;;;;;;22.55;11.10;;;;;;;18.80;48.88;102233.06;5032074;28;20053;-58
2021/08/25 11:12:05;;;;;;;10.70;4.68;;;;;;;18.87;48.63;102224.47;5031777;28;20046;-60
2021/08/25 11:14:38;;;;;;;10.00;5.13;;;;;;;18.97;49.16;102227.13;5030889;28;20042;-59
2021/08/25 11:17:17;;;;;;;10.20;5.43;;;;;;;19.02;48.59;102229.81;5031411;28;20116;-62
2021/08/25 11:20:00;;;;;;;9.60;5.30;;;;;;;19.07;48.54;102220.66;5031436;28;20116;-58
2021/08/25 11:22:33;;;;;;;9.75;5.43;;;;;;;19.04;48.42;102216.56;5032063;28;20055;-60
2021/08/25 11:25:08;;;;;;;10.13;5.50;;;;;;;19.08;48.87;102208.53;5030210;28;20404;-58
2021/08/25 11:27:37;;;;;;;9.80;5.05;;;;;;;19.06;48.74;102205.22;5031711;28;20037;-58
2021/08/25 11:30:16;;;;;;;19.58;9.35;;;;;;;19.03;48.63;102201.09;5030813;28;20447;-60